Time;durP1;ratioP1;P1;durP2;ratioP2;P2;SDS_P1;SDS_P2;PMS_P1;PMS_P2;Temp;Humidity;BMP_temperature;BMP_pressure;BME280_temperature;BME280_humidity;BME280_pressure;Samples;Min_cycle;Max_cycle;Signal;HPM_P1;HPM_P2
2023/12/04 00:01:19;;;;;;;25.23;13.10;;;4.70;73.30;;;;;;5076479;28;20039;-68
2023/12/04 00:03:45;;;;;;;21.00;11.90;;;4.70;73.30;;;;;;5114974;28;20447;-69
2023/12/04 00:06:12;;;;;;;22.47;11.83;;;4.70;73.30;;;;;;5083462;28;20016;-68
2023/12/04 00:08:38;;;;;;;25.80;13.87;;;4.70;73.30;;;;;;5072591;28;20074;-68
2023/12/04 00:11:04;;;;;;;26.10;13.17;;;4.70;73.30;;;;;;5106147;28;20396;-68
2023/12/04 00:13:30;;;;;;;27.27;14.33;;;4.70;73.30;;;;;;5115412;28;20364;-68
2023/12/04 00:15:56;;;;;;;23.00;13.70;;;4.70;73.20;;;;;;5102392;28;20039;-69
2023/12/04 00:18:22;;;;;;;25.97;14.37;;;4.70;73.20;;;;;;5061989;28;20032;-68
2023/12/04 00:20:48;;;;;;;24.77;13.50;;;4.70;73.80;;;;;;5072142;28;20379;-69
2023/12/04 00:23:14;;;;;;;25.33;13.63;;;4.70;73.10;;;;;;5092862;28;20463;-69
2023/12/04 00:25:40;;;;;;;25.93;13.33;;;4.70;73.00;;;;;;5096822;28;20036;-69
2023/12/04 00:28:05;;;;;;;26.10;14.63;;;4.70;73.00;;;;;;5107422;28;20023;-69
2023/12/04 00:30:31;;;;;;;27.27;13.70;;;4.60;72.80;;;;;;5096587;28;20056;-68
2023/12/04 00:32:57;;;;;;;26.67;13.53;;;4.60;72.90;;;;;;5086642;28;20075;-69
2023/12/04 00:35:22;;;;;;;30.97;16.33;;;4.70;73.00;;;;;;5086499;28;20028;-69
2023/12/04 00:37:48;;;;;;;34.70;16.23;;;4.60;72.90;;;;;;5087763;28;20023;-68
2023/12/04 00:40:14;;;;;;;30.03;15.17;;;4.60;72.90;;;;;;5090826;28;20043;-69
2023/12/04 00:42:40;;;;;;;25.87;13.87;;;4.60;73.00;;;;;;5095357;28;20028;-69
2023/12/04 00:45:06;;;;;;;25.50;15.03;;;4.60;73.00;;;;;;5085563;28;20417;-69
2023/12/04 00:47:32;;;;;;;27.60;14.77;;;4.60;72.90;;;;;;5090896;28;20039;-69
2023/12/04 00:49:57;;;;;;;27.13;13.97;;;4.60;72.80;;;;;;5092181;28;20114;-69
2023/12/04 00:52:23;;;;;;;24.33;13.37;;;4.60;72.80;;;;;;5087799;28;20031;-69
2023/12/04 00:54:49;;;;;;;23.70;12.83;;;4.60;72.80;;;;;;5097087;28;20031;-69
2023/12/04 00:57:15;;;;;;;24.07;13.07;;;4.60;72.70;;;;;;5081839;28;20365;-69
2023/12/04 00:59:41;;;;;;;25.37;14.03;;;4.60;72.80;;;;;;5073071;28;20055;-69
2023/12/04 01:02:07;;;;;;;23.80;13.17;;;4.60;72.70;;;;;;5090036;28;20031;-69
2023/12/04 01:04:33;;;;;;;24.57;13.60;;;4.60;72.70;;;;;;5109739;28;20027;-69
2023/12/04 01:06:59;;;;;;;23.53;12.77;;;4.70;72.70;;;;;;5083478;28;20020;-69
2023/12/04 01:09:24;;;;;;;24.53;14.03;;;4.70;72.60;;;;;;5089216;28;20028;-69
2023/12/04 01:11:53;;;;;;;22.73;12.57;;;4.70;72.50;;;;;;5106956;28;20069;-69
2023/12/04 01:14:20;;;;;;;22.80;12.53;;;4.70;72.40;;;;;;5097498;28;20039;-69
2023/12/04 01:16:45;;;;;;;23.17;13.07;;;4.70;72.40;;;;;;5082351;28;20048;-69
2023/12/04 01:19:11;;;;;;;23.50;11.90;;;4.70;72.40;;;;;;5087367;28;20424;-68
2023/12/04 01:21:38;;;;;;;24.43;13.57;;;4.70;72.40;;;;;;5100296;28;20102;-69
2023/12/04 01:24:04;;;;;;;22.97;12.27;;;4.70;72.30;;;;;;5086530;28;20032;-69
2023/12/04 01:26:30;;;;;;;21.80;13.13;;;4.70;72.30;;;;;;5061852;28;20032;-69
2023/12/04 01:28:56;;;;;;;22.50;12.23;;;4.70;72.20;;;;;;5065771;28;20028;-69
2023/12/04 01:31:22;;;;;;;22.97;12.40;;;4.70;72.30;;;;;;5079210;28;20107;-69
2023/12/04 01:33:48;;;;;;;26.23;13.03;;;4.70;72.30;;;;;;5096047;28;21832;-69
2023/12/04 01:36:14;;;;;;;23.20;12.83;;;4.70;72.30;;;;;;5065894;28;20027;-69
2023/12/04 01:38:39;;;;;;;24.60;13.67;;;4.70;72.20;;;;;;5082601;28;20028;-69
2023/12/04 01:41:06;;;;;;;24.73;13.53;;;4.80;72.30;;;;;;5083218;28;20501;-69
2023/12/04 01:43:31;;;;;;;21.97;12.73;;;4.70;72.20;;;;;;5087824;28;20021;-69
2023/12/04 01:45:59;;;;;;;23.97;12.47;;;4.70;72.20;;;;;;5084550;28;20033;-68
2023/12/04 01:48:26;;;;;;;23.37;12.50;;;4.70;72.30;;;;;;5091200;28;20020;-69
2023/12/04 01:50:52;;;;;;;24.70;13.30;;;4.70;72.30;;;;;;5071424;28;20429;-69
2023/12/04 01:53:19;;;;;;;22.80;11.60;;;4.70;72.30;;;;;;5073887;28;20056;-69
2023/12/04 01:55:46;;;;;;;22.07;12.80;;;4.70;72.30;;;;;;5069582;28;20036;-69
2023/12/04 01:58:12;;;;;;;26.97;13.80;;;4.70;72.30;;;;;;5052889;28;20028;-69
2023/12/04 02:00:38;;;;;;;26.37;13.87;;;4.70;72.40;;;;;;5088763;28;20093;-69
2023/12/04 02:03:04;;;;;;;22.30;12.83;;;4.70;72.40;;;;;;5080835;28;20032;-68
2023/12/04 02:05:31;;;;;;;23.73;12.93;;;4.70;72.40;;;;;;5101868;28;20024;-69
2023/12/04 02:07:57;;;;;;;22.27;13.30;;;4.70;72.40;;;;;;5082386;28;20111;-69
2023/12/04 02:10:23;;;;;;;21.63;13.37;;;4.70;72.40;;;;;;5076235;28;20414;-69
2023/12/04 02:12:50;;;;;;;24.20;13.30;;;4.70;72.40;;;;;;5081149;28;20032;-69
2023/12/04 02:15:16;;;;;;;24.30;13.20;;;4.70;72.40;;;;;;5059367;28;20123;-69
2023/12/04 02:17:44;;;;;;;24.90;14.10;;;4.70;72.40;;;;;;5100614;28;20508;-69
2023/12/04 02:20:12;;;;;;;22.33;12.37;;;4.80;72.50;;;;;;5056306;28;20047;-69
2023/12/04 02:22:38;;;;;;;22.37;13.40;;;4.70;72.40;;;;;;5075856;28;20023;-69
2023/12/04 02:25:05;;;;;;;23.90;12.20;;;4.70;72.40;;;;;;5096693;28;20123;-69
2023/12/04 02:27:42;;;;;;;24.03;12.50;;;4.70;72.40;;;;;;5101563;28;20039;-69
2023/12/04 02:30:11;;;;;;;22.03;11.77;;;4.70;72.40;;;;;;5094900;28;20330;-69
2023/12/04 02:32:44;;;;;;;22.90;12.83;;;4.70;72.40;;;;;;5078657;28;20055;-69
2023/12/04 02:35:11;;;;;;;25.00;13.17;;;4.70;72.40;;;;;;5077712;28;20037;-69
2023/12/04 02:37:37;;;;;;;23.30;12.13;;;4.70;72.40;;;;;;5082306;28;20074;-69
2023/12/04 02:40:04;;;;;;;21.17;11.97;;;4.70;72.40;;;;;;5080800;28;20052;-69
2023/12/04 02:42:29;;;;;;;21.27;12.80;;;4.70;72.40;;;;;;5097828;28;20059;-69
2023/12/04 02:44:55;;;;;;;25.63;13.10;;;4.70;72.40;;;;;;5093279;28;20063;-69
2023/12/04 02:47:21;;;;;;;21.37;12.03;;;4.70;72.40;;;;;;5096617;28;20111;-69
2023/12/04 02:49:47;;;;;;;23.00;11.73;;;4.70;72.40;;;;;;5103417;28;20078;-69
2023/12/04 02:52:12;;;;;;;21.60;12.43;;;4.70;72.30;;;;;;5103897;28;20027;-69
2023/12/04 02:54:38;;;;;;;23.60;12.73;;;4.70;72.30;;;;;;5077687;28;20051;-69
2023/12/04 02:57:04;;;;;;;24.53;12.93;;;4.70;72.30;;;;;;5068137;28;20028;-69
2023/12/04 02:59:29;;;;;;;20.40;11.33;;;4.70;72.20;;;;;;5090999;28;20429;-69
2023/12/04 03:01:55;;;;;;;23.80;12.23;;;4.70;72.20;;;;;;5102554;28;20027;-69
2023/12/04 03:04:21;;;;;;;22.20;13.43;;;4.70;72.10;;;;;;5097048;28;20498;-69
2023/12/04 03:06:47;;;;;;;21.10;11.30;;;4.70;72.10;;;;;;5094949;28;20023;-69
2023/12/04 03:09:13;;;;;;;23.53;12.27;;;4.70;72.10;;;;;;5078994;28;20107;-69
2023/12/04 03:11:42;;;;;;;20.80;11.80;;;4.70;72.10;;;;;;5073608;28;20477;-69
2023/12/04 03:14:08;;;;;;;20.43;11.60;;;4.70;72.00;;;;;;5103346;28;20019;-69
2023/12/04 03:16:34;;;;;;;19.63;11.43;;;4.70;72.00;;;;;;5092261;28;20055;-69
2023/12/04 03:19:00;;;;;;;21.73;11.83;;;4.70;72.00;;;;;;5086855;28;20043;-69
2023/12/04 03:21:25;;;;;;;23.03;12.07;;;4.70;72.00;;;;;;5093947;28;20124;-70
2023/12/04 03:23:51;;;;;;;20.93;11.40;;;4.70;72.00;;;;;;5083728;28;20442;-69
2023/12/04 03:26:17;;;;;;;19.77;11.30;;;4.70;71.90;;;;;;5096387;28;20020;-69
2023/12/04 03:28:43;;;;;;;18.03;10.03;;;4.70;71.90;;;;;;5095353;28;20027;-69
2023/12/04 03:31:09;;;;;;;18.83;10.80;;;4.70;71.90;;;;;;5098272;28;20032;-71
2023/12/04 03:33:34;;;;;;;19.63;11.83;;;4.70;71.80;;;;;;5063642;28;20044;-69
2023/12/04 03:36:00;;;;;;;18.33;10.87;;;4.70;71.90;;;;;;5061513;28;20023;-69
2023/12/04 03:38:26;;;;;;;19.37;11.87;;;4.70;71.80;;;;;;5071494;28;20070;-70
2023/12/04 03:40:52;;;;;;;19.37;11.27;;;4.70;71.80;;;;;;5081309;28;20444;-69
2023/12/04 03:43:17;;;;;;;19.17;10.43;;;4.70;71.70;;;;;;5084313;28;20078;-69
2023/12/04 03:45:43;;;;;;;19.33;10.20;;;4.70;71.70;;;;;;5093091;28;20098;-70
2023/12/04 03:48:09;;;;;;;20.77;11.47;;;4.70;71.60;;;;;;5080335;28;20336;-69
2023/12/04 03:50:35;;;;;;;18.20;11.00;;;4.70;71.60;;;;;;5086516;28;20452;-69
2023/12/04 03:53:01;;;;;;;17.37;10.50;;;4.70;71.60;;;;;;5080802;28;20075;-69
2023/12/04 03:55:26;;;;;;;16.40;9.47;;;4.70;71.60;;;;;;5089607;28;20040;-69
2023/12/04 03:57:53;;;;;;;17.20;9.30;;;4.70;71.50;;;;;;5088082;28;20074;-70
2023/12/04 04:00:19;;;;;;;17.43;9.57;;;4.60;71.40;;;;;;5088923;28;20444;-69
2023/12/04 04:02:45;;;;;;;17.03;9.60;;;4.70;71.40;;;;;;5085377;28;20326;-69
2023/12/04 04:05:10;;;;;;;18.27;10.10;;;4.70;71.40;;;;;;5089801;28;20031;-69
2023/12/04 04:07:36;;;;;;;16.50;9.63;;;4.70;71.30;;;;;;5078866;28;20020;-69
2023/12/04 04:10:04;;;;;;;17.47;9.27;;;4.70;71.30;;;;;;5095190;28;20015;-69
2023/12/04 04:12:30;;;;;;;18.23;10.27;;;4.70;71.30;;;;;;5065378;28;20028;-69
2023/12/04 04:14:56;;;;;;;16.03;9.60;;;4.60;71.30;;;;;;5095612;28;20040;-69
2023/12/04 04:17:25;;;;;;;17.17;9.90;;;4.70;71.20;;;;;;5092460;28;20340;-69
2023/12/04 04:19:54;;;;;;;20.37;10.13;;;4.70;71.10;;;;;;5073112;28;20050;-69
2023/12/04 04:22:20;;;;;;;16.90;9.20;;;4.70;71.10;;;;;;5089764;28;20051;-69
2023/12/04 04:24:46;;;;;;;16.83;8.57;;;4.60;71.10;;;;;;5077253;28;20030;-69
2023/12/04 04:27:12;;;;;;;16.40;9.57;;;4.60;71.20;;;;;;5093362;28;20016;-69
2023/12/04 04:29:38;;;;;;;17.30;9.50;;;4.60;71.20;;;;;;5073135;28;20485;-69
2023/12/04 04:32:04;;;;;;;17.27;9.83;;;4.60;71.10;;;;;;5056283;28;20024;-69
2023/12/04 04:34:30;;;;;;;16.63;9.67;;;4.60;71.10;;;;;;5071654;28;20040;-69
2023/12/04 04:36:56;;;;;;;15.53;9.30;;;4.60;71.10;;;;;;5074246;28;20043;-69
2023/12/04 04:39:21;;;;;;;16.53;9.17;;;4.60;71.10;;;;;;5071863;28;20507;-69
2023/12/04 04:41:47;;;;;;;16.67;9.03;;;4.60;71.10;;;;;;5092698;28;20112;-69
2023/12/04 04:44:13;;;;;;;16.67;9.57;;;4.60;71.10;;;;;;5092731;28;20024;-69
2023/12/04 04:46:39;;;;;;;17.03;8.93;;;4.60;71.00;;;;;;5077697;28;20512;-69
2023/12/04 04:49:06;;;;;;;16.97;9.63;;;4.60;71.00;;;;;;5095439;28;20025;-69
2023/12/04 04:51:33;;;;;;;16.90;9.40;;;4.60;71.00;;;;;;5096089;28;20031;-69
2023/12/04 04:54:00;;;;;;;17.73;9.47;;;4.60;71.00;;;;;;5059883;28;20055;-69
2023/12/04 04:56:25;;;;;;;16.70;9.47;;;4.60;70.90;;;;;;5095173;28;20098;-69
2023/12/04 04:58:51;;;;;;;15.87;8.67;;;4.60;71.00;;;;;;5095290;28;20418;-69
2023/12/04 05:01:17;;;;;;;16.77;9.43;;;4.60;70.90;;;;;;5078011;28;20408;-69
2023/12/04 05:03:43;;;;;;;15.77;8.97;;;4.60;70.80;;;;;;5087756;28;20057;-69
2023/12/04 05:06:09;;;;;;;16.90;9.73;;;4.60;70.80;;;;;;5090833;28;20486;-69
2023/12/04 05:08:34;;;;;;;17.00;8.57;;;4.60;70.70;;;;;;5076401;28;20099;-69
2023/12/04 05:11:00;;;;;;;15.50;9.10;;;4.60;70.70;;;;;;5092743;28;20028;-69
2023/12/04 05:13:26;;;;;;;15.97;8.70;;;4.60;70.50;;;;;;5095334;28;20103;-69
2023/12/04 05:15:52;;;;;;;16.70;9.80;;;4.60;70.50;;;;;;5073358;28;20053;-69
2023/12/04 05:18:18;;;;;;;16.00;8.57;;;4.60;70.40;;;;;;5086690;28;20488;-69
2023/12/04 05:20:43;;;;;;;17.90;9.80;;;4.60;70.30;;;;;;5091754;28;20060;-69
2023/12/04 05:23:09;;;;;;;16.03;9.40;;;4.60;70.30;;;;;;5094589;28;20399;-69
2023/12/04 05:25:35;;;;;;;16.70;8.60;;;4.60;70.60;;;;;;5074413;28;20016;-70
2023/12/04 05:28:01;;;;;;;15.37;8.90;;;4.60;70.20;;;;;;5075318;28;20032;-69
2023/12/04 05:30:26;;;;;;;15.87;8.10;;;4.60;70.10;;;;;;5098411;28;20031;-69
2023/12/04 05:32:52;;;;;;;17.60;9.03;;;4.60;70.10;;;;;;5065588;28;20318;-69
2023/12/04 05:35:18;;;;;;;17.37;8.93;;;4.60;70.00;;;;;;5094297;28;20046;-69
2023/12/04 05:37:45;;;;;;;14.93;8.00;;;4.60;70.00;;;;;;5088246;28;20345;-69
2023/12/04 05:40:11;;;;;;;15.90;8.27;;;4.60;69.90;;;;;;5094352;28;20591;-69
2023/12/04 05:42:37;;;;;;;14.80;8.60;;;4.60;69.80;;;;;;5079656;28;20188;-69
2023/12/04 05:45:03;;;;;;;17.00;8.63;;;4.60;69.80;;;;;;5080094;28;20345;-69
2023/12/04 05:47:29;;;;;;;14.70;8.73;;;4.60;69.70;;;;;;5071911;28;20096;-69
2023/12/04 05:49:55;;;;;;;14.80;8.63;;;4.50;69.40;;;;;;5081811;28;20126;-69
2023/12/04 05:52:20;;;;;;;15.90;8.03;;;4.50;69.50;;;;;;5077695;28;20024;-69
2023/12/04 05:54:46;;;;;;;15.83;8.33;;;4.50;69.50;;;;;;5060018;28;20364;-69
2023/12/04 05:57:12;;;;;;;15.03;8.47;;;4.50;69.50;;;;;;5091909;28;21327;-69
2023/12/04 05:59:38;;;;;;;15.90;8.87;;;4.50;69.40;;;;;;5098387;28;20361;-69
2023/12/04 06:02:04;;;;;;;15.23;8.83;;;4.50;69.40;;;;;;5077272;28;20016;-69
2023/12/04 06:04:29;;;;;;;14.50;8.30;;;4.50;69.40;;;;;;5062945;28;20420;-69
2023/12/04 06:06:55;;;;;;;16.27;8.47;;;4.50;69.30;;;;;;5111826;28;20366;-69
2023/12/04 06:09:21;;;;;;;13.80;7.93;;;4.50;69.20;;;;;;5088682;28;20048;-69
2023/12/04 06:11:47;;;;;;;15.93;7.80;;;4.50;69.20;;;;;;5100956;28;20490;-69
2023/12/04 06:14:12;;;;;;;14.17;8.07;;;4.50;69.10;;;;;;5069526;28;20040;-69
2023/12/04 06:16:38;;;;;;;13.37;7.70;;;4.50;69.10;;;;;;5105438;28;20100;-70
2023/12/04 06:19:04;;;;;;;15.93;8.03;;;4.50;69.00;;;;;;5049641;28;20040;-69
2023/12/04 06:21:30;;;;;;;14.53;7.60;;;4.60;69.10;;;;;;5058243;28;21417;-70
2023/12/04 06:23:57;;;;;;;14.20;7.93;;;4.60;69.00;;;;;;5067650;28;20031;-69
2023/12/04 06:26:23;;;;;;;12.47;7.03;;;4.50;68.80;;;;;;5089640;28;20158;-69
2023/12/04 06:28:49;;;;;;;14.70;7.93;;;4.50;68.80;;;;;;5045928;28;20028;-70
2023/12/04 06:31:16;;;;;;;14.03;7.20;;;4.60;68.80;;;;;;5060233;28;20449;-69
2023/12/04 06:33:42;;;;;;;12.53;6.90;;;4.60;68.70;;;;;;5073183;28;20162;-69
2023/12/04 06:36:09;;;;;;;13.87;7.13;;;4.50;68.50;;;;;;5086156;28;20103;-69
2023/12/04 06:38:40;;;;;;;13.17;7.30;;;4.50;68.50;;;;;;5062221;28;20145;-69
2023/12/04 06:41:07;;;;;;;12.63;6.78;;;4.60;68.50;;;;;;5069541;28;20535;-69
2023/12/04 06:43:33;;;;;;;13.97;7.67;;;4.50;68.40;;;;;;5052863;28;20056;-69
2023/12/04 06:45:59;;;;;;;13.73;7.50;;;4.50;68.30;;;;;;5070716;28;20032;-69
2023/12/04 06:48:25;;;;;;;13.17;7.80;;;4.60;68.30;;;;;;5057074;28;20044;-69
2023/12/04 06:50:51;;;;;;;13.53;6.97;;;4.60;68.30;;;;;;5076641;28;20085;-69
2023/12/04 06:53:17;;;;;;;11.60;6.70;;;4.60;68.20;;;;;;5062041;28;20055;-70
2023/12/04 06:55:44;;;;;;;13.80;6.87;;;4.60;68.10;;;;;;5066163;28;20036;-69
2023/12/04 06:58:10;;;;;;;13.30;7.10;;;4.60;68.10;;;;;;5065916;28;20556;-69
2023/12/04 07:00:35;;;;;;;12.60;6.47;;;4.60;68.00;;;;;;5067264;28;20024;-70
2023/12/04 07:03:01;;;;;;;13.57;7.27;;;4.60;67.90;;;;;;5059852;28;20059;-69
2023/12/04 07:05:27;;;;;;;13.47;7.20;;;4.50;67.80;;;;;;5086161;28;20028;-69
2023/12/04 07:07:53;;;;;;;11.37;6.30;;;4.50;67.70;;;;;;5090053;28;20024;-69
2023/12/04 07:10:18;;;;;;;12.30;7.10;;;4.60;67.70;;;;;;5083482;28;20107;-70
2023/12/04 07:12:44;;;;;;;13.33;6.93;;;4.60;67.70;;;;;;5075429;28;20028;-69
2023/12/04 07:15:11;;;;;;;13.90;7.17;;;4.60;67.60;;;;;;5069770;28;20427;-70
2023/12/04 07:17:39;;;;;;;13.00;6.83;;;4.60;67.50;;;;;;5086115;28;20423;-70
2023/12/04 07:20:06;;;;;;;12.63;7.00;;;4.60;67.50;;;;;;5100785;28;20043;-70
2023/12/04 07:22:32;;;;;;;11.80;6.10;;;4.60;67.40;;;;;;5090776;28;20050;-69
2023/12/04 07:24:58;;;;;;;12.63;6.70;;;4.60;67.40;;;;;;5100561;28;20032;-69
2023/12/04 07:27:24;;;;;;;13.63;7.70;;;4.60;67.40;;;;;;5076499;28;20069;-69
2023/12/04 07:29:50;;;;;;;14.37;7.53;;;4.60;67.30;;;;;;5088429;28;20442;-70
2023/12/04 07:32:17;;;;;;;14.27;7.50;;;4.60;67.30;;;;;;5093688;28;20098;-69
2023/12/04 07:34:43;;;;;;;12.83;7.43;;;4.60;67.20;;;;;;5094226;28;20028;-70
2023/12/04 07:37:09;;;;;;;13.33;7.60;;;4.60;67.00;;;;;;5093655;28;20036;-69
2023/12/04 07:39:35;;;;;;;13.10;6.70;;;4.60;66.90;;;;;;5092006;28;20035;-69
2023/12/04 07:42:01;;;;;;;13.23;6.80;;;4.60;66.80;;;;;;5093560;28;20024;-69
2023/12/04 07:44:27;;;;;;;12.50;7.43;;;4.60;66.70;;;;;;5066935;28;20336;-69
2023/12/04 07:46:52;;;;;;;12.43;6.93;;;4.60;66.60;;;;;;5093195;28;20107;-69
2023/12/04 07:49:18;;;;;;;11.77;7.07;;;4.60;66.60;;;;;;5070349;28;20027;-69
2023/12/04 07:51:44;;;;;;;11.70;6.80;;;4.60;66.60;;;;;;5093126;28;20322;-69
2023/12/04 07:54:09;;;;;;;13.50;6.50;;;4.60;66.50;;;;;;5072042;28;20460;-69
2023/12/04 07:56:35;;;;;;;14.33;7.30;;;4.60;66.40;;;;;;5069157;28;20036;-70
2023/12/04 07:59:01;;;;;;;12.30;6.83;;;4.60;66.30;;;;;;5074511;28;20026;-70
2023/12/04 08:01:27;;;;;;;12.73;7.00;;;4.60;66.20;;;;;;5059017;28;20403;-69
2023/12/04 08:03:52;;;;;;;12.40;6.30;;;4.60;66.10;;;;;;5096232;28;20028;-69
2023/12/04 08:06:19;;;;;;;11.73;6.43;;;4.60;66.00;;;;;;5093321;28;20016;-69
2023/12/04 08:08:45;;;;;;;13.53;7.57;;;4.60;65.90;;;;;;5092776;28;20016;-69
2023/12/04 08:11:11;;;;;;;13.47;6.50;;;4.60;66.60;;;;;;5076026;28;20036;-69
2023/12/04 08:13:40;;;;;;;11.77;6.40;;;4.60;65.80;;;;;;5076602;28;20039;-65
2023/12/04 08:16:14;;;;;;;10.83;5.73;;;4.60;65.70;;;;;;5097033;28;20027;-66
2023/12/04 08:18:39;;;;;;;12.43;6.10;;;4.60;65.60;;;;;;5094884;28;20031;-65
2023/12/04 08:21:05;;;;;;;14.50;7.40;;;4.60;65.50;;;;;;5085253;28;20051;-66
2023/12/04 08:23:31;;;;;;;12.67;7.27;;;4.70;65.50;;;;;;5101390;28;20067;-66
2023/12/04 08:25:57;;;;;;;11.97;6.40;;;4.60;65.30;;;;;;5089342;28;20016;-67
2023/12/04 08:28:23;;;;;;;11.83;6.47;;;4.70;65.40;;;;;;5092961;28;20028;-67
2023/12/04 08:30:49;;;;;;;11.93;6.40;;;4.60;65.30;;;;;;5076992;28;20032;-66
2023/12/04 08:33:14;;;;;;;13.27;6.60;;;4.70;65.30;;;;;;5078782;28;20028;-66
2023/12/04 08:35:40;;;;;;;12.97;6.67;;;4.70;65.30;;;;;;5093466;28;20123;-67
2023/12/04 08:38:06;;;;;;;11.70;6.00;;;4.70;65.20;;;;;;5096369;28;20035;-66
2023/12/04 08:40:32;;;;;;;11.47;6.20;;;4.70;65.20;;;;;;5090459;28;20073;-67
2023/12/04 08:42:58;;;;;;;11.63;6.43;;;4.70;65.10;;;;;;5066594;28;20041;-66
2023/12/04 08:45:24;;;;;;;10.70;6.23;;;4.70;65.10;;;;;;5097102;28;20127;-65
2023/12/04 08:47:50;;;;;;;13.27;6.60;;;4.80;65.00;;;;;;5097150;28;20020;-65
2023/12/04 08:50:16;;;;;;;13.63;7.63;;;4.80;65.00;;;;;;5094882;28;20535;-65
2023/12/04 08:52:42;;;;;;;13.30;6.93;;;4.90;65.00;;;;;;5097163;28;20077;-65
2023/12/04 08:55:08;;;;;;;18.73;7.10;;;5.00;64.90;;;;;;5096822;28;20115;-66
2023/12/04 08:57:34;;;;;;;11.07;5.67;;;5.10;64.70;;;;;;5062493;28;20401;-66
2023/12/04 08:59:59;;;;;;;12.80;7.17;;;5.20;65.30;;;;;;5080178;28;20187;-66
2023/12/04 09:02:25;;;;;;;11.60;6.63;;;5.20;64.50;;;;;;5078668;28;20035;-66
2023/12/04 09:04:51;;;;;;;13.50;6.60;;;5.20;64.40;;;;;;5093750;28;20440;-66
2023/12/04 09:07:17;;;;;;;12.67;6.73;;;5.20;64.40;;;;;;5082724;28;20042;-66
2023/12/04 09:09:43;;;;;;;12.50;7.07;;;5.20;64.40;;;;;;5117487;28;20023;-67
2023/12/04 09:12:10;;;;;;;13.17;6.57;;;5.10;64.40;;;;;;5104666;28;20086;-67
2023/12/04 09:14:36;;;;;;;12.00;6.67;;;5.10;64.50;;;;;;5095587;28;20031;-67
2023/12/04 09:17:03;;;;;;;11.93;6.53;;;5.10;64.50;;;;;;5117047;28;20035;-67
2023/12/04 09:19:29;;;;;;;12.33;6.43;;;5.10;64.60;;;;;;5117257;28;20035;-66
2023/12/04 09:21:56;;;;;;;12.33;7.00;;;5.10;64.60;;;;;;5065213;28;20027;-67
2023/12/04 09:24:23;;;;;;;13.97;7.20;;;5.10;64.60;;;;;;5109009;28;20466;-67
2023/12/04 09:26:49;;;;;;;13.97;6.90;;;5.10;64.70;;;;;;5074459;28;20111;-67
2023/12/04 09:29:16;;;;;;;12.37;7.20;;;5.10;64.70;;;;;;5097516;28;20140;-67
2023/12/04 09:31:42;;;;;;;13.87;7.77;;;5.10;64.70;;;;;;5105106;28;20077;-68
2023/12/04 09:34:08;;;;;;;13.60;7.47;;;5.10;64.70;;;;;;5076684;28;20074;-67
2023/12/04 09:36:34;;;;;;;12.27;6.83;;;5.10;64.70;;;;;;5111644;28;20036;-70
2023/12/04 09:39:00;;;;;;;12.27;6.63;;;5.10;64.80;;;;;;5096129;28;20427;-70
2023/12/04 09:41:27;;;;;;;12.97;7.43;;;5.10;64.70;;;;;;5081403;28;20055;-72
2023/12/04 09:43:53;;;;;;;14.70;7.30;;;5.10;64.80;;;;;;5088541;28;20058;-70
2023/12/04 09:46:19;;;;;;;12.77;7.13;;;5.10;64.90;;;;;;5098561;28;20024;-70
2023/12/04 09:48:46;;;;;;;13.13;7.03;;;5.10;64.90;;;;;;5098141;28;20467;-72
2023/12/04 09:51:14;;;;;;;12.97;6.60;;;5.10;64.90;;;;;;5116685;28;20374;-72
2023/12/04 09:53:41;;;;;;;13.20;7.50;;;5.20;64.90;;;;;;5058738;28;20456;-71
2023/12/04 09:56:09;;;;;;;12.73;7.33;;;5.20;64.90;;;;;;5066949;28;20062;-71
2023/12/04 09:58:39;;;;;;;13.27;7.37;;;5.20;64.80;;;;;;5075190;28;20028;-71
2023/12/04 10:01:06;;;;;;;13.30;7.00;;;5.20;64.70;;;;;;5093206;28;20076;-68
2023/12/04 10:03:33;;;;;;;13.23;7.63;;;5.20;64.70;;;;;;5083576;28;20025;-70
2023/12/04 10:05:59;;;;;;;14.63;7.20;;;5.20;64.70;;;;;;5076245;28;20064;-71
2023/12/04 10:08:25;;;;;;;13.03;7.50;;;5.20;64.70;;;;;;5069851;28;20025;-71
2023/12/04 10:10:50;;;;;;;12.53;7.47;;;5.30;64.70;;;;;;5045612;28;20031;-70
2023/12/04 10:13:16;;;;;;;13.40;7.60;;;5.30;64.60;;;;;;5088538;28;20028;-71
2023/12/04 10:15:51;;;;;;;13.20;6.87;;;5.30;64.60;;;;;;5090983;28;20024;-71
2023/12/04 10:18:29;;;;;;;15.53;8.27;;;5.30;64.60;;;;;;5077460;28;20036;-71
2023/12/04 10:20:55;;;;;;;12.23;7.13;;;5.30;64.50;;;;;;5073223;28;20031;-71
2023/12/04 10:23:21;;;;;;;14.33;7.80;;;5.30;64.60;;;;;;5116119;28;20012;-71
2023/12/04 10:25:51;;;;;;;14.10;8.30;;;5.30;64.50;;;;;;5097839;28;20387;-71
2023/12/04 10:28:17;;;;;;;14.77;7.63;;;5.30;64.40;;;;;;5082072;28;20379;-71
2023/12/04 10:30:44;;;;;;;13.30;7.27;;;5.40;64.50;;;;;;5097776;28;20440;-71
2023/12/04 10:33:11;;;;;;;12.47;7.27;;;5.30;64.40;;;;;;5115907;28;20119;-71
2023/12/04 10:35:37;;;;;;;13.60;7.30;;;5.40;64.40;;;;;;5098151;28;20024;-71
2023/12/04 10:38:04;;;;;;;13.83;7.83;;;5.40;64.40;;;;;;5083680;28;20032;-71
2023/12/04 10:40:31;;;;;;;12.70;7.10;;;5.40;64.30;;;;;;5096479;28;20031;-71
2023/12/04 10:43:10;;;;;;;12.17;7.27;;;5.40;64.20;;;;;;5115324;28;20046;-71
2023/12/04 10:45:40;;;;;;;14.30;7.50;;;5.40;64.10;;;;;;5115667;28;20031;-71
2023/12/04 10:48:07;;;;;;;14.07;7.47;;;5.30;64.00;;;;;;5103385;28;20084;-71
2023/12/04 10:50:44;;;;;;;13.97;7.77;;;5.30;64.00;;;;;;5085395;28;20019;-71
2023/12/04 10:53:15;;;;;;;14.77;7.87;;;5.40;63.90;;;;;;5115169;28;20039;-71
2023/12/04 10:55:41;;;;;;;15.77;7.55;;;5.40;63.80;;;;;;5101159;28;20032;-71
2023/12/04 10:58:11;;;;;;;13.47;7.40;;;5.30;63.80;;;;;;5059456;28;20069;-71
2023/12/04 11:00:56;;;;;;;13.90;7.13;;;5.40;63.80;;;;;;5068246;28;20039;-73
2023/12/04 11:03:34;;;;;;;13.20;7.10;;;5.40;63.50;;;;;;5066581;28;20039;-73
2023/12/04 11:06:01;;;;;;;13.67;8.00;;;5.40;63.50;;;;;;5084719;28;20115;-73
2023/12/04 11:08:34;;;;;;;14.50;7.77;;;5.40;64.20;;;;;;5070902;28;20111;-73
2023/12/04 11:11:03;;;;;;;12.57;6.67;;;5.40;63.40;;;;;;5091386;28;20435;-73
2023/12/04 11:13:31;;;;;;;13.33;6.97;;;5.40;63.30;;;;;;5101095;28;20435;-70
2023/12/04 11:16:25;;;;;;;13.57;7.43;;;5.40;63.20;;;;;;5095834;28;20019;-72
2023/12/04 11:19:02;;;;;;;13.30;7.23;;;5.50;63.10;;;;;;5070032;28;20513;-72
2023/12/04 11:21:30;;;;;;;13.20;7.53;;;5.50;63.20;;;;;;5102084;28;20032;-72
2023/12/04 11:23:58;;;;;;;12.47;6.93;;;5.50;63.20;;;;;;5097131;28;20096;-72
2023/12/04 11:26:24;;;;;;;12.83;6.57;;;5.50;63.10;;;;;;5115042;28;20032;-72
2023/12/04 11:28:52;;;;;;;12.30;7.70;;;5.50;63.00;;;;;;5077309;28;20046;-72
2023/12/04 11:31:18;;;;;;;11.67;6.40;;;5.50;63.00;;;;;;5073633;28;20093;-72
2023/12/04 11:33:44;;;;;;;13.27;7.40;;;5.50;63.00;;;;;;5107968;28;20023;-72
2023/12/04 11:36:12;;;;;;;13.70;7.53;;;5.50;62.90;;;;;;5114680;28;20032;-72
2023/12/04 11:38:47;;;;;;;13.80;8.13;;;5.50;62.90;;;;;;5096626;28;20039;-72
2023/12/04 11:41:19;;;;;;;12.93;7.10;;;5.50;62.80;;;;;;5088798;28;20466;-72
2023/12/04 11:43:49;;;;;;;13.60;8.03;;;5.50;62.80;;;;;;5087207;28;20436;-72
2023/12/04 11:46:23;;;;;;;12.50;7.27;;;5.50;62.80;;;;;;5104968;28;20036;-72
2023/12/04 11:49:15;;;;;;;12.23;6.77;;;5.50;62.80;;;;;;5097089;28;20020;-72
2023/12/04 11:51:42;;;;;;;11.10;6.77;;;5.50;62.80;;;;;;5058992;28;20053;-72
2023/12/04 11:54:09;;;;;;;11.60;6.17;;;5.50;62.80;;;;;;5099762;28;20106;-72
2023/12/04 11:56:35;;;;;;;11.70;6.73;;;5.50;62.70;;;;;;5097150;28;20372;-72
2023/12/04 11:59:05;;;;;;;12.87;6.53;;;5.50;62.70;;;;;;5116351;28;20031;-71
2023/12/04 12:01:36;;;;;;;12.23;6.93;;;5.50;62.70;;;;;;5093542;28;20100;-71
2023/12/04 12:04:04;;;;;;;12.07;6.53;;;5.50;62.70;;;;;;5094890;28;20032;-71
2023/12/04 12:06:30;;;;;;;11.97;6.27;;;5.50;62.70;;;;;;5074333;28;20024;-72
2023/12/04 12:08:56;;;;;;;11.87;6.43;;;5.50;62.70;;;;;;5076035;28;20115;-71
2023/12/04 12:11:23;;;;;;;11.30;6.40;;;5.50;62.70;;;;;;5093002;28;20027;-72
2023/12/04 12:13:49;;;;;;;13.47;6.70;;;5.50;62.70;;;;;;5090964;28;20035;-72
2023/12/04 12:16:15;;;;;;;12.07;6.50;;;5.50;62.70;;;;;;5098266;28;20039;-72
2023/12/04 12:18:41;;;;;;;11.37;6.03;;;5.50;62.70;;;;;;5118092;28;20073;-72
2023/12/04 12:21:07;;;;;;;11.97;6.07;;;5.60;62.70;;;;;;5086146;28;20122;-73
2023/12/04 12:23:33;;;;;;;13.00;6.33;;;5.50;62.50;;;;;;5095005;28;20410;-72
2023/12/04 12:26:00;;;;;;;12.27;6.17;;;5.50;62.40;;;;;;5081424;28;20485;-72
2023/12/04 12:28:25;;;;;;;11.77;6.63;;;5.60;62.50;;;;;;5090997;28;20020;-70
2023/12/04 12:30:53;;;;;;;13.43;6.87;;;5.60;62.50;;;;;;5098997;28;20050;-70
2023/12/04 12:33:20;;;;;;;11.50;6.83;;;5.60;62.40;;;;;;5099420;28;20362;-71
2023/12/04 12:35:50;;;;;;;11.53;6.70;;;5.60;62.40;;;;;;5074315;28;20073;-70
2023/12/04 12:38:16;;;;;;;13.43;6.90;;;5.60;62.50;;;;;;5101193;28;20483;-70
2023/12/04 12:40:42;;;;;;;11.57;6.63;;;5.60;62.40;;;;;;5088692;28;20173;-70